sensor_id;sensor_type;location;lat;lon;timestamp;P1;durP1;ratioP1;P2;durP2;ratioP2
13279;SDS011;6708;49.814;8.652;2023-12-28T00:02:09;5.63;;;2.50;;
13279;SDS011;6708;49.814;8.652;2023-12-28T00:04:38;2.47;;;2.07;;
13279;SDS011;6708;49.814;8.652;2023-12-28T00:07:06;2.50;;;2.30;;
13279;SDS011;6708;49.814;8.652;2023-12-28T00:09:35;3.13;;;2.83;;
13279;SDS011;6708;49.814;8.652;2023-12-28T00:12:04;2.60;;;2.50;;
13279;SDS011;6708;49.814;8.652;2023-12-28T00:14:33;2.60;;;2.40;;
13279;SDS011;6708;49.814;8.652;2023-12-28T00:17:04;2.80;;;2.60;;
13279;SDS011;6708;49.814;8.652;2023-12-28T00:19:33;2.40;;;2.10;;
13279;SDS011;6708;49.814;8.652;2023-12-28T00:22:01;2.93;;;2.50;;
13279;SDS011;6708;49.814;8.652;2023-12-28T00:24:29;2.60;;;2.40;;
13279;SDS011;6708;49.814;8.652;2023-12-28T00:26:58;2.40;;;2.20;;
13279;SDS011;6708;49.814;8.652;2023-12-28T00:29:26;3.07;;;2.73;;
13279;SDS011;6708;49.814;8.652;2023-12-28T00:31:55;2.30;;;2.17;;
13279;SDS011;6708;49.814;8.652;2023-12-28T00:34:27;2.10;;;2.00;;
13279;SDS011;6708;49.814;8.652;2023-12-28T00:36:56;2.13;;;2.03;;
13279;SDS011;6708;49.814;8.652;2023-12-28T00:39:24;2.47;;;1.90;;
13279;SDS011;6708;49.814;8.652;2023-12-28T00:41:53;2.00;;;1.90;;
13279;SDS011;6708;49.814;8.652;2023-12-28T00:44:21;1.90;;;1.80;;
13279;SDS011;6708;49.814;8.652;2023-12-28T00:46:49;2.83;;;2.33;;
13279;SDS011;6708;49.814;8.652;2023-12-28T00:49:18;1.90;;;1.80;;
13279;SDS011;6708;49.814;8.652;2023-12-28T00:51:49;2.13;;;2.03;;
13279;SDS011;6708;49.814;8.652;2023-12-28T00:54:18;2.23;;;2.03;;
13279;SDS011;6708;49.814;8.652;2023-12-28T00:56:47;2.33;;;2.17;;
13279;SDS011;6708;49.814;8.652;2023-12-28T00:59:15;1.90;;;1.80;;
13279;SDS011;6708;49.814;8.652;2023-12-28T01:01:44;2.60;;;2.40;;
13279;SDS011;6708;49.814;8.652;2023-12-28T01:04:12;3.37;;;2.17;;
13279;SDS011;6708;49.814;8.652;2023-12-28T01:06:42;2.30;;;2.10;;
13279;SDS011;6708;49.814;8.652;2023-12-28T01:09:13;2.23;;;1.73;;
13279;SDS011;6708;49.814;8.652;2023-12-28T01:11:42;2.97;;;2.13;;
13279;SDS011;6708;49.814;8.652;2023-12-28T01:14:10;2.83;;;1.93;;
13279;SDS011;6708;49.814;8.652;2023-12-28T01:16:39;2.43;;;2.00;;
13279;SDS011;6708;49.814;8.652;2023-12-28T01:19:09;2.40;;;2.07;;
13279;SDS011;6708;49.814;8.652;2023-12-28T01:21:37;2.67;;;2.10;;
13279;SDS011;6708;49.814;8.652;2023-12-28T01:24:06;2.00;;;1.83;;
13279;SDS011;6708;49.814;8.652;2023-12-28T01:26:37;2.40;;;2.20;;
13279;SDS011;6708;49.814;8.652;2023-12-28T01:29:05;1.97;;;1.87;;
13279;SDS011;6708;49.814;8.652;2023-12-28T01:31:34;2.60;;;2.40;;
13279;SDS011;6708;49.814;8.652;2023-12-28T01:34:04;3.53;;;1.90;;
13279;SDS011;6708;49.814;8.652;2023-12-28T01:36:34;2.30;;;2.10;;
13279;SDS011;6708;49.814;8.652;2023-12-28T01:39:06;2.40;;;2.20;;
13279;SDS011;6708;49.814;8.652;2023-12-28T01:41:38;2.20;;;2.10;;
13279;SDS011;6708;49.814;8.652;2023-12-28T01:44:07;2.30;;;2.20;;
13279;SDS011;6708;49.814;8.652;2023-12-28T01:46:35;2.57;;;2.37;;
13279;SDS011;6708;49.814;8.652;2023-12-28T01:49:05;2.03;;;1.90;;
13279;SDS011;6708;49.814;8.652;2023-12-28T01:51:33;2.40;;;2.20;;
13279;SDS011;6708;49.814;8.652;2023-12-28T01:54:02;2.57;;;2.00;;
13279;SDS011;6708;49.814;8.652;2023-12-28T01:56:31;3.07;;;2.10;;
13279;SDS011;6708;49.814;8.652;2023-12-28T01:59:03;3.00;;;2.57;;
13279;SDS011;6708;49.814;8.652;2023-12-28T02:01:31;2.50;;;2.30;;
13279;SDS011;6708;49.814;8.652;2023-12-28T02:04:00;4.40;;;2.23;;
13279;SDS011;6708;49.814;8.652;2023-12-28T02:06:29;3.23;;;2.13;;
13279;SDS011;6708;49.814;8.652;2023-12-28T02:08:57;1.80;;;1.70;;
13279;SDS011;6708;49.814;8.652;2023-12-28T02:11:26;1.63;;;1.50;;
13279;SDS011;6708;49.814;8.652;2023-12-28T02:13:54;2.47;;;2.20;;
13279;SDS011;6708;49.814;8.652;2023-12-28T02:16:27;3.60;;;2.10;;
13279;SDS011;6708;49.814;8.652;2023-12-28T02:19:00;2.43;;;2.20;;
13279;SDS011;6708;49.814;8.652;2023-12-28T02:21:34;3.03;;;2.03;;
13279;SDS011;6708;49.814;8.652;2023-12-28T02:24:03;2.27;;;2.07;;
13279;SDS011;6708;49.814;8.652;2023-12-28T02:26:34;3.87;;;2.17;;
13279;SDS011;6708;49.814;8.652;2023-12-28T02:29:02;4.07;;;2.40;;
13279;SDS011;6708;49.814;8.652;2023-12-28T02:31:35;2.10;;;2.00;;
13279;SDS011;6708;49.814;8.652;2023-12-28T02:34:08;2.60;;;2.23;;
13279;SDS011;6708;49.814;8.652;2023-12-28T02:36:40;2.37;;;2.17;;
13279;SDS011;6708;49.814;8.652;2023-12-28T02:39:10;3.10;;;2.27;;
13279;SDS011;6708;49.814;8.652;2023-12-28T02:41:42;3.07;;;2.80;;
13279;SDS011;6708;49.814;8.652;2023-12-28T02:44:11;2.47;;;2.03;;
13279;SDS011;6708;49.814;8.652;2023-12-28T02:46:39;3.23;;;2.30;;
13279;SDS011;6708;49.814;8.652;2023-12-28T02:49:08;2.30;;;2.07;;
13279;SDS011;6708;49.814;8.652;2023-12-28T02:51:37;2.07;;;1.97;;
13279;SDS011;6708;49.814;8.652;2023-12-28T02:54:05;2.67;;;2.47;;
13279;SDS011;6708;49.814;8.652;2023-12-28T02:56:34;2.40;;;2.00;;
13279;SDS011;6708;49.814;8.652;2023-12-28T02:59:05;4.23;;;2.70;;
13279;SDS011;6708;49.814;8.652;2023-12-28T03:01:33;3.60;;;2.50;;
13279;SDS011;6708;49.814;8.652;2023-12-28T03:04:02;2.30;;;1.93;;
13279;SDS011;6708;49.814;8.652;2023-12-28T03:06:30;2.20;;;2.10;;
13279;SDS011;6708;49.814;8.652;2023-12-28T03:09:00;2.87;;;2.40;;
13279;SDS011;6708;49.814;8.652;2023-12-28T03:11:30;3.63;;;3.00;;
13279;SDS011;6708;49.814;8.652;2023-12-28T03:13:58;2.50;;;2.30;;
13279;SDS011;6708;49.814;8.652;2023-12-28T03:16:30;2.77;;;2.57;;
13279;SDS011;6708;49.814;8.652;2023-12-28T03:18:59;2.23;;;2.13;;
13279;SDS011;6708;49.814;8.652;2023-12-28T03:21:28;2.43;;;2.23;;
13279;SDS011;6708;49.814;8.652;2023-12-28T03:23:56;3.03;;;2.10;;
13279;SDS011;6708;49.814;8.652;2023-12-28T03:26:26;2.53;;;2.33;;
13279;SDS011;6708;49.814;8.652;2023-12-28T03:28:55;2.37;;;1.90;;
13279;SDS011;6708;49.814;8.652;2023-12-28T03:31:23;3.17;;;2.40;;
13279;SDS011;6708;49.814;8.652;2023-12-28T03:33:54;2.30;;;2.10;;
13279;SDS011;6708;49.814;8.652;2023-12-28T03:36:23;2.23;;;2.03;;
13279;SDS011;6708;49.814;8.652;2023-12-28T03:38:52;2.63;;;2.10;;
13279;SDS011;6708;49.814;8.652;2023-12-28T03:41:20;2.00;;;1.90;;
13279;SDS011;6708;49.814;8.652;2023-12-28T03:43:49;2.20;;;2.10;;
13279;SDS011;6708;49.814;8.652;2023-12-28T03:46:17;2.87;;;2.10;;
13279;SDS011;6708;49.814;8.652;2023-12-28T03:48:46;4.00;;;2.10;;
13279;SDS011;6708;49.814;8.652;2023-12-28T03:51:17;2.40;;;2.03;;
13279;SDS011;6708;49.814;8.652;2023-12-28T03:53:46;3.27;;;2.47;;
13279;SDS011;6708;49.814;8.652;2023-12-28T03:56:18;1.87;;;1.80;;
13279;SDS011;6708;49.814;8.652;2023-12-28T03:58:48;2.63;;;2.10;;
13279;SDS011;6708;49.814;8.652;2023-12-28T04:01:13;3.63;;;2.10;;
13279;SDS011;6708;49.814;8.652;2023-12-28T04:03:42;3.27;;;2.10;;
13279;SDS011;6708;49.814;8.652;2023-12-28T04:06:10;2.23;;;2.13;;
13279;SDS011;6708;49.814;8.652;2023-12-28T04:08:42;2.33;;;2.13;;
13279;SDS011;6708;49.814;8.652;2023-12-28T04:11:10;2.37;;;2.20;;
13279;SDS011;6708;49.814;8.652;2023-12-28T04:13:39;2.33;;;2.13;;
13279;SDS011;6708;49.814;8.652;2023-12-28T04:16:07;2.57;;;2.20;;
13279;SDS011;6708;49.814;8.652;2023-12-28T04:18:37;1.93;;;1.73;;
13279;SDS011;6708;49.814;8.652;2023-12-28T04:21:07;2.23;;;2.10;;
13279;SDS011;6708;49.814;8.652;2023-12-28T04:23:36;2.20;;;2.10;;
13279;SDS011;6708;49.814;8.652;2023-12-28T04:26:08;2.77;;;2.27;;
13279;SDS011;6708;49.814;8.652;2023-12-28T04:28:36;1.93;;;1.83;;
13279;SDS011;6708;49.814;8.652;2023-12-28T04:31:05;2.13;;;2.03;;
13279;SDS011;6708;49.814;8.652;2023-12-28T04:33:34;1.40;;;1.30;;
13279;SDS011;6708;49.814;8.652;2023-12-28T04:36:03;2.27;;;2.17;;
13279;SDS011;6708;49.814;8.652;2023-12-28T04:38:32;1.60;;;1.60;;
13279;SDS011;6708;49.814;8.652;2023-12-28T04:41:01;1.80;;;1.70;;
13279;SDS011;6708;49.814;8.652;2023-12-28T04:43:32;1.90;;;1.57;;
13279;SDS011;6708;49.814;8.652;2023-12-28T04:46:02;1.67;;;1.40;;
13279;SDS011;6708;49.814;8.652;2023-12-28T04:48:31;1.63;;;1.63;;
13279;SDS011;6708;49.814;8.652;2023-12-28T04:51:01;1.70;;;1.70;;
13279;SDS011;6708;49.814;8.652;2023-12-28T04:53:28;2.13;;;1.90;;
13279;SDS011;6708;49.814;8.652;2023-12-28T04:55:57;1.97;;;1.87;;
13279;SDS011;6708;49.814;8.652;2023-12-28T04:58:25;1.30;;;1.30;;
13279;SDS011;6708;49.814;8.652;2023-12-28T05:00:56;1.97;;;1.87;;
13279;SDS011;6708;49.814;8.652;2023-12-28T05:03:25;2.10;;;2.00;;
13279;SDS011;6708;49.814;8.652;2023-12-28T05:05:53;2.33;;;2.13;;
13279;SDS011;6708;49.814;8.652;2023-12-28T05:08:22;1.90;;;1.77;;
13279;SDS011;6708;49.814;8.652;2023-12-28T05:10:50;1.83;;;1.70;;
13279;SDS011;6708;49.814;8.652;2023-12-28T05:13:19;1.77;;;1.60;;
13279;SDS011;6708;49.814;8.652;2023-12-28T05:15:48;1.70;;;1.60;;
13279;SDS011;6708;49.814;8.652;2023-12-28T05:18:19;1.97;;;1.87;;
13279;SDS011;6708;49.814;8.652;2023-12-28T05:20:47;1.80;;;1.70;;
13279;SDS011;6708;49.814;8.652;2023-12-28T05:23:16;1.83;;;1.73;;
13279;SDS011;6708;49.814;8.652;2023-12-28T05:25:44;1.70;;;1.60;;
13279;SDS011;6708;49.814;8.652;2023-12-28T05:28:14;1.93;;;1.83;;
13279;SDS011;6708;49.814;8.652;2023-12-28T05:30:43;1.40;;;1.40;;
13279;SDS011;6708;49.814;8.652;2023-12-28T05:33:11;2.90;;;1.90;;
13279;SDS011;6708;49.814;8.652;2023-12-28T05:35:42;1.50;;;1.40;;
13279;SDS011;6708;49.814;8.652;2023-12-28T05:38:11;2.93;;;1.60;;
13279;SDS011;6708;49.814;8.652;2023-12-28T05:40:39;1.60;;;1.50;;
13279;SDS011;6708;49.814;8.652;2023-12-28T05:43:09;1.37;;;1.30;;
13279;SDS011;6708;49.814;8.652;2023-12-28T05:45:38;1.40;;;1.30;;
13279;SDS011;6708;49.814;8.652;2023-12-28T05:48:06;1.50;;;1.40;;
13279;SDS011;6708;49.814;8.652;2023-12-28T05:50:35;1.57;;;1.47;;
13279;SDS011;6708;49.814;8.652;2023-12-28T05:53:06;1.50;;;1.40;;
13279;SDS011;6708;49.814;8.652;2023-12-28T05:55:38;1.30;;;1.30;;
13279;SDS011;6708;49.814;8.652;2023-12-28T05:58:07;1.60;;;1.50;;
13279;SDS011;6708;49.814;8.652;2023-12-28T06:00:35;1.43;;;1.33;;
13279;SDS011;6708;49.814;8.652;2023-12-28T06:03:04;1.23;;;1.20;;
13279;SDS011;6708;49.814;8.652;2023-12-28T06:05:33;3.80;;;1.60;;
13279;SDS011;6708;49.814;8.652;2023-12-28T06:08:01;1.47;;;1.30;;
13279;SDS011;6708;49.814;8.652;2023-12-28T06:10:33;1.20;;;1.20;;
13279;SDS011;6708;49.814;8.652;2023-12-28T06:13:01;1.03;;;1.00;;
13279;SDS011;6708;49.814;8.652;2023-12-28T06:15:30;1.33;;;1.33;;
13279;SDS011;6708;49.814;8.652;2023-12-28T06:17:58;1.60;;;1.50;;
13279;SDS011;6708;49.814;8.652;2023-12-28T06:20:28;1.37;;;1.27;;
13279;SDS011;6708;49.814;8.652;2023-12-28T06:22:56;1.20;;;1.20;;
13279;SDS011;6708;49.814;8.652;2023-12-28T06:25:25;1.47;;;1.33;;
13279;SDS011;6708;49.814;8.652;2023-12-28T06:27:56;1.17;;;1.13;;
13279;SDS011;6708;49.814;8.652;2023-12-28T06:30:24;2.10;;;1.20;;
13279;SDS011;6708;49.814;8.652;2023-12-28T06:32:53;1.63;;;1.33;;
13279;SDS011;6708;49.814;8.652;2023-12-28T06:35:21;1.17;;;1.03;;
13279;SDS011;6708;49.814;8.652;2023-12-28T06:37:50;1.00;;;1.00;;
13279;SDS011;6708;49.814;8.652;2023-12-28T06:40:18;1.37;;;1.27;;
13279;SDS011;6708;49.814;8.652;2023-12-28T06:42:47;1.07;;;1.07;;
13279;SDS011;6708;49.814;8.652;2023-12-28T06:45:18;1.20;;;1.20;;
13279;SDS011;6708;49.814;8.652;2023-12-28T06:47:52;2.43;;;1.00;;
13279;SDS011;6708;49.814;8.652;2023-12-28T06:50:20;0.97;;;0.97;;
13279;SDS011;6708;49.814;8.652;2023-12-28T06:52:49;1.37;;;1.33;;
13279;SDS011;6708;49.814;8.652;2023-12-28T06:55:17;1.67;;;1.00;;
13279;SDS011;6708;49.814;8.652;2023-12-28T06:57:46;3.00;;;1.33;;
13279;SDS011;6708;49.814;8.652;2023-12-28T07:00:14;1.53;;;1.43;;
13279;SDS011;6708;49.814;8.652;2023-12-28T07:02:46;1.37;;;1.27;;
13279;SDS011;6708;49.814;8.652;2023-12-28T07:05:14;1.20;;;1.07;;
13279;SDS011;6708;49.814;8.652;2023-12-28T07:07:42;1.03;;;1.03;;
13279;SDS011;6708;49.814;8.652;2023-12-28T07:10:11;2.47;;;1.40;;
13279;SDS011;6708;49.814;8.652;2023-12-28T07:12:40;1.27;;;1.17;;
13279;SDS011;6708;49.814;8.652;2023-12-28T07:15:09;1.77;;;1.20;;
13279;SDS011;6708;49.814;8.652;2023-12-28T07:17:42;2.20;;;1.73;;
13279;SDS011;6708;49.814;8.652;2023-12-28T07:20:10;2.03;;;1.43;;
13279;SDS011;6708;49.814;8.652;2023-12-28T07:22:39;1.00;;;1.00;;
13279;SDS011;6708;49.814;8.652;2023-12-28T07:25:10;3.13;;;0.90;;
13279;SDS011;6708;49.814;8.652;2023-12-28T07:27:39;1.03;;;1.03;;
13279;SDS011;6708;49.814;8.652;2023-12-28T07:30:07;1.30;;;1.10;;
13279;SDS011;6708;49.814;8.652;2023-12-28T07:32:37;1.23;;;1.10;;
13279;SDS011;6708;49.814;8.652;2023-12-28T07:35:08;1.60;;;1.23;;
13279;SDS011;6708;49.814;8.652;2023-12-28T07:37:36;0.93;;;0.93;;
13279;SDS011;6708;49.814;8.652;2023-12-28T07:40:06;1.30;;;1.20;;
13279;SDS011;6708;49.814;8.652;2023-12-28T07:42:35;0.93;;;0.93;;
13279;SDS011;6708;49.814;8.652;2023-12-28T07:45:04;1.27;;;1.17;;
13279;SDS011;6708;49.814;8.652;2023-12-28T07:47:33;0.83;;;0.83;;
13279;SDS011;6708;49.814;8.652;2023-12-28T07:50:02;3.20;;;1.20;;
13279;SDS011;6708;49.814;8.652;2023-12-28T07:52:33;1.47;;;1.37;;
13279;SDS011;6708;49.814;8.652;2023-12-28T07:55:03;1.20;;;1.20;;
13279;SDS011;6708;49.814;8.652;2023-12-28T07:57:31;1.10;;;1.10;;
13279;SDS011;6708;49.814;8.652;2023-12-28T08:00:00;1.10;;;1.10;;
13279;SDS011;6708;49.814;8.652;2023-12-28T08:02:29;1.03;;;1.03;;
13279;SDS011;6708;49.814;8.652;2023-12-28T08:04:57;1.30;;;1.20;;
13279;SDS011;6708;49.814;8.652;2023-12-28T08:07:26;2.50;;;1.60;;
13279;SDS011;6708;49.814;8.652;2023-12-28T08:09:57;2.93;;;1.00;;
13279;SDS011;6708;49.814;8.652;2023-12-28T08:12:25;0.90;;;0.90;;
13279;SDS011;6708;49.814;8.652;2023-12-28T08:14:54;1.33;;;1.10;;
13279;SDS011;6708;49.814;8.652;2023-12-28T08:17:23;1.10;;;0.97;;
13279;SDS011;6708;49.814;8.652;2023-12-28T08:19:51;1.47;;;1.37;;
13279;SDS011;6708;49.814;8.652;2023-12-28T08:22:20;1.13;;;1.10;;
13279;SDS011;6708;49.814;8.652;2023-12-28T08:24:49;1.50;;;1.20;;
13279;SDS011;6708;49.814;8.652;2023-12-28T08:27:20;1.57;;;1.40;;
13279;SDS011;6708;49.814;8.652;2023-12-28T08:29:48;1.00;;;1.00;;
13279;SDS011;6708;49.814;8.652;2023-12-28T08:32:17;1.00;;;1.00;;
13279;SDS011;6708;49.814;8.652;2023-12-28T08:34:45;1.70;;;1.27;;
13279;SDS011;6708;49.814;8.652;2023-12-28T08:37:14;1.20;;;1.20;;
13279;SDS011;6708;49.814;8.652;2023-12-28T08:39:43;1.80;;;1.17;;
13279;SDS011;6708;49.814;8.652;2023-12-28T08:42:11;2.03;;;1.17;;
13279;SDS011;6708;49.814;8.652;2023-12-28T08:44:42;1.20;;;1.10;;
13279;SDS011;6708;49.814;8.652;2023-12-28T08:47:11;1.23;;;1.23;;
13279;SDS011;6708;49.814;8.652;2023-12-28T08:49:39;1.57;;;1.47;;
13279;SDS011;6708;49.814;8.652;2023-12-28T08:52:08;1.57;;;1.47;;
13279;SDS011;6708;49.814;8.652;2023-12-28T08:54:36;1.70;;;1.10;;
13279;SDS011;6708;49.814;8.652;2023-12-28T08:57:05;1.27;;;1.17;;
13279;SDS011;6708;49.814;8.652;2023-12-28T08:59:35;1.20;;;1.20;;
13279;SDS011;6708;49.814;8.652;2023-12-28T09:02:06;1.33;;;1.23;;
13279;SDS011;6708;49.814;8.652;2023-12-28T09:04:35;2.10;;;1.37;;
13279;SDS011;6708;49.814;8.652;2023-12-28T09:07:04;1.40;;;1.30;;
13279;SDS011;6708;49.814;8.652;2023-12-28T09:09:32;1.27;;;1.20;;
13279;SDS011;6708;49.814;8.652;2023-12-28T09:12:01;1.20;;;1.17;;
13279;SDS011;6708;49.814;8.652;2023-12-28T09:14:29;1.10;;;1.10;;
13279;SDS011;6708;49.814;8.652;2023-12-28T09:16:58;1.47;;;1.33;;
13279;SDS011;6708;49.814;8.652;2023-12-28T09:19:29;1.17;;;1.07;;
13279;SDS011;6708;49.814;8.652;2023-12-28T09:21:57;1.50;;;1.40;;
13279;SDS011;6708;49.814;8.652;2023-12-28T09:24:26;1.30;;;1.20;;
13279;SDS011;6708;49.814;8.652;2023-12-28T09:26:54;1.43;;;1.33;;
13279;SDS011;6708;49.814;8.652;2023-12-28T09:29:22;1.00;;;1.00;;
13279;SDS011;6708;49.814;8.652;2023-12-28T09:31:51;1.40;;;1.33;;
13279;SDS011;6708;49.814;8.652;2023-12-28T09:34:19;1.90;;;1.23;;
13279;SDS011;6708;49.814;8.652;2023-12-28T09:36:50;1.47;;;1.40;;
13279;SDS011;6708;49.814;8.652;2023-12-28T09:39:19;1.10;;;1.00;;
13279;SDS011;6708;49.814;8.652;2023-12-28T09:41:49;1.20;;;1.20;;
13279;SDS011;6708;49.814;8.652;2023-12-28T09:44:23;1.20;;;1.20;;
13279;SDS011;6708;49.814;8.652;2023-12-28T09:46:52;3.60;;;1.20;;
13279;SDS011;6708;49.814;8.652;2023-12-28T09:49:23;1.47;;;1.37;;
13279;SDS011;6708;49.814;8.652;2023-12-28T09:51:54;2.00;;;1.33;;
13279;SDS011;6708;49.814;8.652;2023-12-28T09:54:23;0.83;;;0.83;;
13279;SDS011;6708;49.814;8.652;2023-12-28T09:56:52;1.23;;;1.23;;
13279;SDS011;6708;49.814;8.652;2023-12-28T09:59:22;1.50;;;1.40;;
13279;SDS011;6708;49.814;8.652;2023-12-28T10:01:51;3.03;;;1.20;;
13279;SDS011;6708;49.814;8.652;2023-12-28T10:04:19;1.87;;;1.30;;
13279;SDS011;6708;49.814;8.652;2023-12-28T10:06:48;1.60;;;1.50;;
13279;SDS011;6708;49.814;8.652;2023-12-28T10:09:19;1.13;;;0.97;;
13279;SDS011;6708;49.814;8.652;2023-12-28T10:11:48;4.13;;;2.97;;
13279;SDS011;6708;49.814;8.652;2023-12-28T10:14:17;1.60;;;1.50;;
13279;SDS011;6708;49.814;8.652;2023-12-28T10:16:46;1.50;;;1.40;;
13279;SDS011;6708;49.814;8.652;2023-12-28T10:19:14;2.47;;;1.40;;
13279;SDS011;6708;49.814;8.652;2023-12-28T10:21:42;2.50;;;1.00;;
13279;SDS011;6708;49.814;8.652;2023-12-28T10:24:11;1.97;;;1.27;;
13279;SDS011;6708;49.814;8.652;2023-12-28T10:26:42;1.40;;;1.30;;
13279;SDS011;6708;49.814;8.652;2023-12-28T10:29:11;1.47;;;1.37;;
13279;SDS011;6708;49.814;8.652;2023-12-28T10:31:41;1.40;;;1.30;;
13279;SDS011;6708;49.814;8.652;2023-12-28T10:34:14;1.20;;;1.10;;
13279;SDS011;6708;49.814;8.652;2023-12-28T10:36:43;0.90;;;0.90;;
13279;SDS011;6708;49.814;8.652;2023-12-28T10:39:12;1.50;;;1.40;;
13279;SDS011;6708;49.814;8.652;2023-12-28T10:41:46;1.40;;;1.30;;
13279;SDS011;6708;49.814;8.652;2023-12-28T10:44:17;1.20;;;1.10;;
13279;SDS011;6708;49.814;8.652;2023-12-28T10:46:48;0.87;;;0.83;;
13279;SDS011;6708;49.814;8.652;2023-12-28T10:49:19;2.20;;;1.20;;
13279;SDS011;6708;49.814;8.652;2023-12-28T10:51:50;1.57;;;1.23;;
13279;SDS011;6708;49.814;8.652;2023-12-28T10:54:23;1.63;;;1.37;;
13279;SDS011;6708;49.814;8.652;2023-12-28T10:57:04;2.40;;;1.10;;
13279;SDS011;6708;49.814;8.652;2023-12-28T10:59:39;1.20;;;1.10;;
13279;SDS011;6708;49.814;8.652;2023-12-28T11:02:11;1.93;;;1.83;;
13279;SDS011;6708;49.814;8.652;2023-12-28T11:04:44;1.43;;;1.33;;
13279;SDS011;6708;49.814;8.652;2023-12-28T11:07:14;2.50;;;1.23;;
13279;SDS011;6708;49.814;8.652;2023-12-28T11:09:50;2.47;;;1.57;;
13279;SDS011;6708;49.814;8.652;2023-12-28T11:12:29;1.37;;;1.13;;
13279;SDS011;6708;49.814;8.652;2023-12-28T11:14:57;1.83;;;1.63;;
13279;SDS011;6708;49.814;8.652;2023-12-28T11:17:28;1.43;;;1.40;;
13279;SDS011;6708;49.814;8.652;2023-12-28T11:19:58;1.60;;;1.50;;
13279;SDS011;6708;49.814;8.652;2023-12-28T11:22:30;1.80;;;1.70;;
13279;SDS011;6708;49.814;8.652;2023-12-28T11:24:59;2.33;;;2.00;;
13279;SDS011;6708;49.814;8.652;2023-12-28T11:27:35;1.50;;;1.40;;
13279;SDS011;6708;49.814;8.652;2023-12-28T11:30:04;1.13;;;1.10;;
13279;SDS011;6708;49.814;8.652;2023-12-28T11:32:33;2.17;;;1.37;;
13279;SDS011;6708;49.814;8.652;2023-12-28T11:35:06;6.30;;;2.43;;
13279;SDS011;6708;49.814;8.652;2023-12-28T11:37:35;1.57;;;1.43;;
13279;SDS011;6708;49.814;8.652;2023-12-28T11:40:10;1.47;;;1.10;;
13279;SDS011;6708;49.814;8.652;2023-12-28T11:42:52;3.43;;;1.23;;
13279;SDS011;6708;49.814;8.652;2023-12-28T11:45:22;1.27;;;1.20;;
13279;SDS011;6708;49.814;8.652;2023-12-28T11:50:36;1.40;;;1.20;;
13279;SDS011;6708;49.814;8.652;2023-12-28T11:53:05;1.33;;;1.23;;
13279;SDS011;6708;49.814;8.652;2023-12-28T11:55:33;1.60;;;1.10;;
13279;SDS011;6708;49.814;8.652;2023-12-28T11:58:04;1.97;;;1.27;;
13279;SDS011;6708;49.814;8.652;2023-12-28T12:00:33;3.47;;;1.10;;
13279;SDS011;6708;49.814;8.652;2023-12-28T12:03:02;2.23;;;1.30;;
13279;SDS011;6708;49.814;8.652;2023-12-28T12:05:31;1.30;;;1.00;;
13279;SDS011;6708;49.814;8.652;2023-12-28T12:08:00;1.00;;;1.00;;
13279;SDS011;6708;49.814;8.652;2023-12-28T12:10:28;3.57;;;1.40;;
13279;SDS011;6708;49.814;8.652;2023-12-28T12:12:57;1.27;;;1.17;;
13279;SDS011;6708;49.814;8.652;2023-12-28T12:15:30;3.07;;;1.23;;
13279;SDS011;6708;49.814;8.652;2023-12-28T12:17:58;1.37;;;1.23;;
13279;SDS011;6708;49.814;8.652;2023-12-28T12:20:27;1.07;;;0.83;;
13279;SDS011;6708;49.814;8.652;2023-12-28T12:22:57;2.40;;;1.10;;
13279;SDS011;6708;49.814;8.652;2023-12-28T12:25:26;1.53;;;1.13;;
13279;SDS011;6708;49.814;8.652;2023-12-28T12:27:54;1.13;;;1.10;;
13279;SDS011;6708;49.814;8.652;2023-12-28T12:30:23;1.40;;;1.30;;
13279;SDS011;6708;49.814;8.652;2023-12-28T12:32:54;1.20;;;1.20;;
13279;SDS011;6708;49.814;8.652;2023-12-28T12:35:22;2.67;;;1.30;;
13279;SDS011;6708;49.814;8.652;2023-12-28T12:37:51;5.43;;;1.50;;
13279;SDS011;6708;49.814;8.652;2023-12-28T12:40:19;3.23;;;1.63;;
13279;SDS011;6708;49.814;8.652;2023-12-28T12:42:51;1.80;;;1.70;;
13279;SDS011;6708;49.814;8.652;2023-12-28T12:45:21;1.43;;;1.30;;
13279;SDS011;6708;49.814;8.652;2023-12-28T12:47:50;1.60;;;1.50;;
13279;SDS011;6708;49.814;8.652;2023-12-28T12:50:22;1.80;;;1.50;;
13279;SDS011;6708;49.814;8.652;2023-12-28T12:52:50;1.40;;;1.30;;
13279;SDS011;6708;49.814;8.652;2023-12-28T12:55:19;1.70;;;1.60;;
13279;SDS011;6708;49.814;8.652;2023-12-28T12:57:47;1.70;;;1.60;;
13279;SDS011;6708;49.814;8.652;2023-12-28T13:00:16;2.20;;;1.77;;
13279;SDS011;6708;49.814;8.652;2023-12-28T13:02:46;1.60;;;1.50;;
13279;SDS011;6708;49.814;8.652;2023-12-28T13:05:17;1.50;;;1.40;;
13279;SDS011;6708;49.814;8.652;2023-12-28T13:07:46;1.67;;;1.57;;
13279;SDS011;6708;49.814;8.652;2023-12-28T13:10:14;3.47;;;1.57;;
13279;SDS011;6708;49.814;8.652;2023-12-28T13:12:43;1.97;;;1.60;;
13279;SDS011;6708;49.814;8.652;2023-12-28T13:15:11;1.80;;;1.57;;
13279;SDS011;6708;49.814;8.652;2023-12-28T13:17:39;1.83;;;1.73;;
13279;SDS011;6708;49.814;8.652;2023-12-28T13:20:09;1.97;;;1.77;;
13279;SDS011;6708;49.814;8.652;2023-12-28T13:22:42;2.50;;;2.07;;
13279;SDS011;6708;49.814;8.652;2023-12-28T13:25:10;1.83;;;1.73;;
13279;SDS011;6708;49.814;8.652;2023-12-28T13:27:38;2.50;;;1.83;;
13279;SDS011;6708;49.814;8.652;2023-12-28T13:30:07;1.77;;;1.67;;
13279;SDS011;6708;49.814;8.652;2023-12-28T13:32:37;2.20;;;2.10;;
13279;SDS011;6708;49.814;8.652;2023-12-28T13:35:06;2.17;;;2.00;;
13279;SDS011;6708;49.814;8.652;2023-12-28T13:37:35;2.67;;;1.90;;
13279;SDS011;6708;49.814;8.652;2023-12-28T13:40:07;2.20;;;2.10;;
13279;SDS011;6708;49.814;8.652;2023-12-28T13:42:36;2.10;;;2.00;;
13279;SDS011;6708;49.814;8.652;2023-12-28T13:45:06;2.23;;;2.03;;
13279;SDS011;6708;49.814;8.652;2023-12-28T13:47:35;2.17;;;2.07;;
13279;SDS011;6708;49.814;8.652;2023-12-28T13:50:04;2.10;;;2.00;;
13279;SDS011;6708;49.814;8.652;2023-12-28T13:52:34;2.03;;;1.87;;
13279;SDS011;6708;49.814;8.652;2023-12-28T13:55:02;1.40;;;1.40;;
13279;SDS011;6708;49.814;8.652;2023-12-28T13:57:34;1.80;;;1.70;;
13279;SDS011;6708;49.814;8.652;2023-12-28T14:00:02;2.17;;;2.00;;
13279;SDS011;6708;49.814;8.652;2023-12-28T14:02:40;1.50;;;1.50;;
13279;SDS011;6708;49.814;8.652;2023-12-28T14:05:08;1.57;;;1.50;;
13279;SDS011;6708;49.814;8.652;2023-12-28T14:07:37;1.80;;;1.70;;
13279;SDS011;6708;49.814;8.652;2023-12-28T14:10:06;2.00;;;1.70;;
13279;SDS011;6708;49.814;8.652;2023-12-28T14:12:38;1.63;;;1.37;;
13279;SDS011;6708;49.814;8.652;2023-12-28T14:15:07;1.30;;;1.30;;
13279;SDS011;6708;49.814;8.652;2023-12-28T14:17:36;1.47;;;1.37;;
13279;SDS011;6708;49.814;8.652;2023-12-28T14:20:05;1.67;;;1.63;;
13279;SDS011;6708;49.814;8.652;2023-12-28T14:22:36;1.70;;;1.70;;
13279;SDS011;6708;49.814;8.652;2023-12-28T14:25:06;1.67;;;1.50;;
13279;SDS011;6708;49.814;8.652;2023-12-28T14:27:39;1.80;;;1.70;;
13279;SDS011;6708;49.814;8.652;2023-12-28T14:30:09;2.07;;;1.57;;
13279;SDS011;6708;49.814;8.652;2023-12-28T14:32:38;1.87;;;1.83;;
13279;SDS011;6708;49.814;8.652;2023-12-28T14:35:08;2.00;;;1.80;;
13279;SDS011;6708;49.814;8.652;2023-12-28T14:37:37;1.80;;;1.70;;
13279;SDS011;6708;49.814;8.652;2023-12-28T14:40:07;1.80;;;1.70;;
13279;SDS011;6708;49.814;8.652;2023-12-28T14:42:39;1.93;;;1.80;;
13279;SDS011;6708;49.814;8.652;2023-12-28T14:45:08;1.77;;;1.70;;
13279;SDS011;6708;49.814;8.652;2023-12-28T14:47:37;1.60;;;1.60;;
13279;SDS011;6708;49.814;8.652;2023-12-28T14:50:06;1.70;;;1.60;;
13279;SDS011;6708;49.814;8.652;2023-12-28T14:52:34;1.97;;;1.87;;
13279;SDS011;6708;49.814;8.652;2023-12-28T14:55:07;2.03;;;1.83;;
13279;SDS011;6708;49.814;8.652;2023-12-28T14:57:39;2.50;;;1.63;;
13279;SDS011;6708;49.814;8.652;2023-12-28T15:00:07;1.60;;;1.50;;
13279;SDS011;6708;49.814;8.652;2023-12-28T15:02:37;1.63;;;1.57;;
13279;SDS011;6708;49.814;8.652;2023-12-28T15:05:05;1.83;;;1.73;;
13279;SDS011;6708;49.814;8.652;2023-12-28T15:07:37;1.90;;;1.80;;
13279;SDS011;6708;49.814;8.652;2023-12-28T15:10:06;1.97;;;1.87;;
13279;SDS011;6708;49.814;8.652;2023-12-28T15:12:36;2.03;;;1.77;;
13279;SDS011;6708;49.814;8.652;2023-12-28T15:15:08;2.73;;;2.03;;
13279;SDS011;6708;49.814;8.652;2023-12-28T15:17:38;2.10;;;1.70;;